Time;durP1;ratioP1;P1;durP2;ratioP2;P2;SDS_P1;SDS_P2;PMS_P1;PMS_P2;Temp;Humidity;BMP_temperature;BMP_pressure;BME280_temperature;BME280_humidity;BME280_pressure;Samples;Min_cycle;Max_cycle;Signal;HPM_P1;HPM_P2
2023/01/19 00:01:29;;;;;;;20.40;10.95;;;-0.10;99.90;;;;;;5014488;28;20030;-53
2023/01/19 00:04:15;;;;;;;18.23;10.77;;;-0.10;99.90;;;;;;4998017;28;20042;-57
2023/01/19 00:07:02;;;;;;;18.95;11.40;;;-0.10;99.90;;;;;;5004889;28;20033;-54
2023/01/19 00:09:48;;;;;;;17.00;10.52;;;0.00;99.90;;;;;;5013986;28;20029;-55
2023/01/19 00:12:34;;;;;;;17.73;10.32;;;0.00;99.90;;;;;;4981326;28;20037;-55
2023/01/19 00:15:20;;;;;;;18.30;11.13;;;0.00;99.90;;;;;;5013539;28;20580;-54
2023/01/19 00:18:06;;;;;;;16.08;10.80;;;0.00;99.90;;;;;;5012076;28;20038;-54
2023/01/19 00:20:51;;;;;;;16.63;9.73;;;0.00;99.90;;;;;;5013708;28;20022;-54
2023/01/19 00:23:37;;;;;;;16.55;10.82;;;0.00;99.90;;;;;;5010799;28;20053;-57
2023/01/19 00:26:23;;;;;;;18.55;11.07;;;0.00;99.90;;;;;;5011518;28;20022;-55
2023/01/19 00:29:10;;;;;;;16.67;11.82;;;0.30;99.90;;;;;;5012309;28;20040;-52
2023/01/19 00:31:56;;;;;;;16.95;11.60;;;0.20;99.90;;;;;;5014938;28;20022;-53
2023/01/19 00:34:48;;;;;;;18.13;12.02;;;0.20;99.90;;;;;;5013556;28;20040;-58
2023/01/19 00:37:34;;;;;;;15.77;10.77;;;0.20;99.90;;;;;;5014077;28;20541;-52
2023/01/19 00:40:20;;;;;;;15.77;10.60;;;0.20;99.90;;;;;;5013617;28;20038;-50
2023/01/19 00:43:05;;;;;;;15.43;11.05;;;0.20;99.90;;;;;;5014587;28;20030;-51
2023/01/19 00:45:52;;;;;;;14.90;10.77;;;0.10;99.90;;;;;;4995417;28;20022;-50
2023/01/19 00:48:38;;;;;;;18.10;11.02;;;0.00;99.90;;;;;;4997168;28;20027;-53
2023/01/19 00:51:24;;;;;;;16.83;10.50;;;0.10;99.90;;;;;;5013229;28;20061;-50
2023/01/19 00:54:10;;;;;;;16.20;10.23;;;0.10;99.90;;;;;;4999941;28;20037;-55
2023/01/19 00:56:56;;;;;;;19.88;11.52;;;0.10;99.90;;;;;;5013957;28;20498;-51
2023/01/19 00:59:42;;;;;;;14.70;10.05;;;0.00;99.90;;;;;;5013213;28;20715;-50
2023/01/19 01:02:28;;;;;;;18.50;11.40;;;0.00;99.90;;;;;;5011536;28;20043;-50
2023/01/19 01:05:14;;;;;;;18.13;10.63;;;-0.10;99.90;;;;;;5011778;28;20084;-52
2023/01/19 01:08:00;;;;;;;18.75;11.27;;;-0.10;99.90;;;;;;5013628;28;20506;-50
2023/01/19 01:10:46;;;;;;;17.35;10.30;;;-0.10;99.90;;;;;;5014413;28;20040;-50
2023/01/19 01:13:32;;;;;;;18.80;12.07;;;-0.10;99.90;;;;;;5013305;28;20030;-56
2023/01/19 01:16:18;;;;;;;16.85;11.15;;;-0.10;99.90;;;;;;4966157;28;20169;-52
2023/01/19 01:19:04;;;;;;;17.23;11.73;;;-0.10;99.90;;;;;;5000202;28;20038;-55
2023/01/19 01:21:50;;;;;;;18.17;11.52;;;0.00;99.90;;;;;;5011317;28;20028;-54
2023/01/19 01:24:37;;;;;;;16.65;10.88;;;-0.10;99.90;;;;;;5012337;28;20096;-57
2023/01/19 01:27:22;;;;;;;18.20;10.40;;;-0.10;99.90;;;;;;5012978;28;20387;-53
2023/01/19 01:30:11;;;;;;;15.02;10.18;;;-0.10;99.90;;;;;;5013838;28;20165;-52
2023/01/19 01:32:57;;;;;;;14.93;11.15;;;-0.20;99.90;;;;;;5011845;28;20391;-51
2023/01/19 01:35:42;;;;;;;15.50;9.98;;;-0.20;99.90;;;;;;5011908;28;20053;-51
2023/01/19 01:38:29;;;;;;;19.70;10.43;;;-0.20;99.90;;;;;;5012151;28;20026;-51
2023/01/19 01:41:14;;;;;;;16.77;10.68;;;-0.20;99.90;;;;;;4999230;28;20030;-51
2023/01/19 01:44:02;;;;;;;18.95;11.60;;;-0.20;99.90;;;;;;5013417;28;20026;-54
2023/01/19 01:46:48;;;;;;;18.17;11.32;;;-0.20;99.90;;;;;;5013314;28;20403;-56
2023/01/19 01:49:34;;;;;;;15.65;10.73;;;-0.20;99.90;;;;;;5013219;28;20075;-55
2023/01/19 01:52:24;;;;;;;19.05;11.75;;;-0.10;99.90;;;;;;5014868;28;20052;-51
2023/01/19 01:55:11;;;;;;;19.83;11.82;;;-0.20;99.90;;;;;;5013066;28;20496;-51
2023/01/19 01:58:02;;;;;;;18.67;12.10;;;-0.10;99.90;;;;;;5012090;28;20056;-53
2023/01/19 02:03:55;;;;;;;19.92;11.48;;;-0.20;99.90;;;;;;5003461;28;20026;-50
2023/01/19 02:15:58;;;;;;;20.98;11.65;;;-0.20;99.90;;;;;;5000304;28;20486;-55
2023/01/19 02:18:44;;;;;;;19.50;11.63;;;-0.20;99.90;;;;;;5012656;28;20406;-54
2023/01/19 02:21:39;;;;;;;19.02;11.07;;;-0.20;99.90;;;;;;5012477;28;20428;-52
2023/01/19 02:24:26;;;;;;;19.83;11.93;;;-0.30;99.90;;;;;;5013375;28;20029;-51
2023/01/19 02:27:12;;;;;;;21.48;11.52;;;-0.20;99.90;;;;;;5016828;28;20037;-55
2023/01/19 02:30:02;;;;;;;18.90;11.23;;;-0.20;99.90;;;;;;4999873;28;20038;-54
2023/01/19 02:32:48;;;;;;;17.10;10.60;;;-0.30;99.90;;;;;;5012225;28;20042;-49
2023/01/19 02:35:37;;;;;;;16.88;11.27;;;-0.30;99.90;;;;;;5012600;28;20374;-53
2023/01/19 02:38:26;;;;;;;16.58;10.98;;;-0.20;99.90;;;;;;4993178;28;20031;-52
2023/01/19 02:41:17;;;;;;;18.20;10.95;;;-0.30;99.90;;;;;;4990909;28;20034;-54
2023/01/19 02:44:05;;;;;;;16.48;11.15;;;-0.30;99.90;;;;;;5011363;28;20068;-53
2023/01/19 02:46:53;;;;;;;18.75;10.98;;;-0.30;99.90;;;;;;5010417;28;20030;-52
2023/01/19 02:49:39;;;;;;;16.42;10.85;;;-0.30;99.90;;;;;;5012295;28;20264;-52
2023/01/19 02:52:26;;;;;;;17.75;11.68;;;-0.30;99.90;;;;;;5010306;28;20461;-55
2023/01/19 02:55:19;;;;;;;17.27;11.45;;;-0.40;99.90;;;;;;5011433;28;20546;-53
2023/01/19 02:58:25;;;;;;;19.65;10.43;;;-0.40;99.90;;;;;;5010011;28;20034;-56
2023/01/19 03:01:20;;;;;;;22.35;10.82;;;-0.40;99.90;;;;;;4982397;28;20037;-54
2023/01/19 03:04:44;;;;;;;18.52;10.80;;;-0.40;99.90;;;;;;5010959;28;20104;-59
2023/01/19 03:07:51;;;;;;;16.45;10.10;;;-0.40;99.90;;;;;;5018857;28;20028;-55
2023/01/19 03:10:51;;;;;;;17.02;10.98;;;-0.30;99.90;;;;;;5022257;28;20049;-57
2023/01/19 03:13:52;;;;;;;19.67;9.93;;;-0.30;99.90;;;;;;5011915;28;20029;-56
2023/01/19 03:16:47;;;;;;;17.33;10.52;;;-0.40;99.90;;;;;;5003401;28;20508;-52
2023/01/19 03:19:39;;;;;;;15.70;10.50;;;-0.40;99.90;;;;;;5011077;28;20038;-55
2023/01/19 03:22:28;;;;;;;15.30;9.75;;;-0.40;99.90;;;;;;5010610;28;20561;-57
2023/01/19 03:25:15;;;;;;;18.42;10.65;;;-0.40;99.90;;;;;;5011117;28;20018;-57
2023/01/19 03:28:03;;;;;;;16.55;10.23;;;-0.40;99.90;;;;;;5011423;28;20068;-55
2023/01/19 03:30:57;;;;;;;16.67;10.70;;;-0.40;99.90;;;;;;4992267;28;20646;-55
2023/01/19 03:33:48;;;;;;;13.83;10.13;;;-0.40;99.90;;;;;;4997274;28;20061;-57
2023/01/19 03:36:44;;;;;;;17.63;10.35;;;-0.50;99.90;;;;;;5010146;28;20026;-56
2023/01/19 03:39:30;;;;;;;15.07;10.02;;;-0.40;99.90;;;;;;5010704;28;20026;-59
2023/01/19 03:42:17;;;;;;;15.77;10.32;;;-0.50;99.90;;;;;;5013323;28;20025;-60
2023/01/19 03:45:04;;;;;;;16.23;9.73;;;-0.50;99.90;;;;;;5012203;28;20109;-57
2023/01/19 03:47:51;;;;;;;15.70;9.50;;;-0.50;99.90;;;;;;5015295;28;20394;-55
2023/01/19 03:50:37;;;;;;;17.92;9.60;;;-0.70;99.90;;;;;;4997099;28;20082;-53
2023/01/19 03:53:23;;;;;;;15.32;9.43;;;-0.70;99.90;;;;;;5014764;28;20029;-59
2023/01/19 03:56:21;;;;;;;12.88;9.85;;;-0.70;99.90;;;;;;5015711;28;20362;-58
2023/01/19 03:59:07;;;;;;;14.68;9.48;;;-0.70;99.90;;;;;;4995552;28;20034;-56
2023/01/19 04:01:53;;;;;;;18.08;9.70;;;-0.70;99.90;;;;;;5010575;28;20037;-57
2023/01/19 04:04:39;;;;;;;15.02;9.50;;;-0.80;99.90;;;;;;5014617;28;20105;-58
2023/01/19 04:07:25;;;;;;;15.27;9.63;;;-0.80;99.90;;;;;;5013829;28;20026;-57
2023/01/19 04:10:11;;;;;;;17.70;9.75;;;-0.80;99.90;;;;;;5014754;28;20038;-56
2023/01/19 04:12:59;;;;;;;16.52;10.80;;;-0.80;99.90;;;;;;5015674;28;20037;-50
2023/01/19 04:15:45;;;;;;;15.90;10.25;;;-0.70;99.90;;;;;;5013477;28;20037;-51
2023/01/19 04:18:32;;;;;;;17.70;11.95;;;-0.70;99.90;;;;;;5014417;28;20022;-50
2023/01/19 04:21:21;;;;;;;16.38;10.40;;;-0.70;99.90;;;;;;5012376;28;20030;-53
2023/01/19 04:24:09;;;;;;;13.48;9.35;;;-0.80;99.90;;;;;;5018287;28;20116;-52
2023/01/19 04:26:55;;;;;;;13.40;9.88;;;-0.80;99.90;;;;;;5018368;28;20052;-56
2023/01/19 04:29:41;;;;;;;11.18;8.75;;;-0.80;99.90;;;;;;5017215;28;20360;-54
2023/01/19 04:32:27;;;;;;;16.73;9.40;;;-0.80;99.90;;;;;;5019130;28;20445;-53
2023/01/19 04:35:13;;;;;;;14.05;10.23;;;-0.80;99.90;;;;;;5018815;28;20030;-57
2023/01/19 04:37:59;;;;;;;15.30;8.48;;;-0.80;99.90;;;;;;5016975;28;20034;-57
2023/01/19 04:40:45;;;;;;;13.30;8.45;;;-0.80;99.90;;;;;;5015289;28;20088;-56
2023/01/19 04:43:31;;;;;;;12.63;8.43;;;-0.80;99.90;;;;;;5014013;28;20022;-53
2023/01/19 04:46:17;;;;;;;15.63;9.10;;;-0.80;99.90;;;;;;5014153;28;20080;-52
2023/01/19 04:49:03;;;;;;;16.23;9.88;;;-0.90;99.90;;;;;;5013477;28;20105;-52
2023/01/19 04:51:52;;;;;;;12.10;8.30;;;-0.90;99.90;;;;;;5014181;28;20059;-58
2023/01/19 04:54:38;;;;;;;18.58;9.70;;;-1.00;99.90;;;;;;4994586;28;20030;-56
2023/01/19 04:57:24;;;;;;;15.10;9.32;;;-1.00;99.90;;;;;;5012575;28;20026;-52
2023/01/19 05:00:10;;;;;;;16.63;9.35;;;-1.20;99.90;;;;;;5013743;28;20030;-48
2023/01/19 05:02:56;;;;;;;14.38;8.68;;;-1.20;99.90;;;;;;5012365;28;20558;-51
2023/01/19 05:05:42;;;;;;;12.55;8.25;;;-1.30;99.90;;;;;;4979964;28;20088;-50
2023/01/19 05:08:28;;;;;;;12.45;8.02;;;-1.30;99.90;;;;;;4999066;28;20018;-52
2023/01/19 05:11:14;;;;;;;11.60;7.47;;;-1.40;99.90;;;;;;5012982;28;20406;-50
2023/01/19 05:14:00;;;;;;;17.65;10.40;;;-1.40;99.90;;;;;;5014293;28;20043;-53
2023/01/19 05:16:46;;;;;;;14.93;8.70;;;-1.40;99.90;;;;;;5012067;28;20507;-54
2023/01/19 05:19:32;;;;;;;11.57;7.60;;;-1.40;99.90;;;;;;5006097;28;20057;-52
2023/01/19 05:22:18;;;;;;;15.30;7.65;;;-1.30;99.90;;;;;;5018979;28;20034;-52
2023/01/19 05:25:08;;;;;;;15.65;7.93;;;-1.40;99.90;;;;;;5013721;28;20026;-52
2023/01/19 05:27:54;;;;;;;12.60;7.35;;;-1.40;99.90;;;;;;5008327;28;20026;-50
2023/01/19 05:30:39;;;;;;;10.60;6.60;;;-1.50;99.90;;;;;;4998651;28;20037;-59
2023/01/19 05:33:26;;;;;;;11.80;7.13;;;-1.50;99.90;;;;;;5012787;28;20108;-51
2023/01/19 05:36:12;;;;;;;11.10;7.50;;;-1.60;99.90;;;;;;4999620;28;20022;-53
2023/01/19 05:38:58;;;;;;;13.27;7.65;;;-1.70;99.90;;;;;;4998327;28;20495;-54
2023/01/19 05:41:44;;;;;;;13.90;7.15;;;-1.80;99.90;;;;;;5012531;28;20030;-57
2023/01/19 05:44:30;;;;;;;12.93;7.72;;;-1.80;99.90;;;;;;5012793;28;20034;-51
2023/01/19 05:47:16;;;;;;;13.13;7.90;;;-1.80;99.90;;;;;;4998420;28;20033;-52
2023/01/19 05:50:02;;;;;;;12.18;7.53;;;-1.90;99.90;;;;;;4994409;28;20034;-54
2023/01/19 05:52:48;;;;;;;18.10;7.45;;;-2.00;99.90;;;;;;4998946;28;20549;-54
2023/01/19 05:55:34;;;;;;;12.77;7.63;;;-2.00;99.90;;;;;;5011421;28;20041;-54
2023/01/19 05:58:20;;;;;;;12.73;7.70;;;-1.90;99.90;;;;;;5012192;28;20038;-53
2023/01/19 06:01:08;;;;;;;11.88;7.47;;;-2.00;99.90;;;;;;5013544;28;20108;-56
2023/01/19 06:03:54;;;;;;;12.88;7.85;;;-2.00;99.90;;;;;;5010758;28;20118;-54
2023/01/19 06:06:40;;;;;;;13.98;7.93;;;-2.00;99.90;;;;;;5011283;28;20454;-53
2023/01/19 06:09:26;;;;;;;17.20;8.75;;;-2.00;99.90;;;;;;5012601;28;20034;-51
2023/01/19 06:12:12;;;;;;;12.40;8.52;;;-2.00;99.90;;;;;;4990826;28;20069;-51
2023/01/19 06:14:58;;;;;;;13.73;8.88;;;-1.90;99.90;;;;;;4993520;28;20042;-51
2023/01/19 06:17:44;;;;;;;17.08;8.77;;;-1.90;99.90;;;;;;5012267;28;20057;-55
2023/01/19 06:20:30;;;;;;;18.35;9.32;;;-1.90;99.90;;;;;;5011905;28;20034;-54
2023/01/19 06:23:16;;;;;;;16.52;9.77;;;-1.90;99.90;;;;;;5012645;28;20052;-54
2023/01/19 06:26:02;;;;;;;21.05;10.07;;;-1.80;99.90;;;;;;5005117;28;20030;-55
2023/01/19 06:28:50;;;;;;;14.38;8.10;;;-1.70;99.90;;;;;;5010971;28;20092;-53
2023/01/19 06:31:36;;;;;;;14.52;8.90;;;-1.70;99.90;;;;;;5010506;28;20061;-52
2023/01/19 06:34:25;;;;;;;14.65;8.60;;;-1.80;99.90;;;;;;5011894;28;20030;-53
2023/01/19 06:37:11;;;;;;;13.35;8.93;;;-1.90;99.90;;;;;;5010136;28;20037;-50
2023/01/19 06:39:57;;;;;;;18.60;8.63;;;-1.80;99.90;;;;;;5011193;28;20022;-50
2023/01/19 06:42:43;;;;;;;16.67;8.98;;;-1.80;99.90;;;;;;4997556;28;20032;-51
2023/01/19 06:45:29;;;;;;;15.27;8.60;;;-1.70;99.90;;;;;;4991298;28;20038;-55
2023/01/19 06:48:15;;;;;;;11.43;8.13;;;-1.60;99.90;;;;;;4992742;28;20170;-53
2023/01/19 06:51:01;;;;;;;12.02;8.68;;;-1.60;99.90;;;;;;5002353;28;20600;-52
2023/01/19 06:53:47;;;;;;;18.48;9.15;;;-1.50;99.90;;;;;;5012231;28;20034;-51
2023/01/19 06:56:33;;;;;;;17.38;8.88;;;-1.50;99.90;;;;;;5010779;28;20041;-52
2023/01/19 06:59:19;;;;;;;21.20;13.52;;;-1.60;99.90;;;;;;5012116;28;20061;-52
2023/01/19 07:02:05;;;;;;;18.95;9.90;;;-1.50;99.90;;;;;;5010038;28;20152;-49
2023/01/19 07:04:51;;;;;;;13.63;8.27;;;-1.50;99.90;;;;;;4992020;28;20034;-48
2023/01/19 07:07:38;;;;;;;15.38;9.27;;;-1.40;99.90;;;;;;5007092;28;20030;-52
2023/01/19 07:10:24;;;;;;;18.58;9.57;;;-1.40;99.90;;;;;;5011028;28;20058;-53
2023/01/19 07:13:10;;;;;;;15.63;9.27;;;-1.40;99.90;;;;;;5011459;28;20518;-50
2023/01/19 07:15:56;;;;;;;14.23;8.23;;;-1.40;99.90;;;;;;5009143;28;20041;-55
2023/01/19 07:18:43;;;;;;;16.85;8.13;;;-1.30;99.90;;;;;;5011287;28;20505;-56
2023/01/19 07:21:29;;;;;;;14.00;7.97;;;-1.30;99.90;;;;;;5010505;28;20449;-52
2023/01/19 07:24:15;;;;;;;20.38;8.80;;;-1.30;99.90;;;;;;4991883;28;20061;-53
2023/01/19 07:27:01;;;;;;;15.85;9.00;;;-1.20;99.90;;;;;;5005406;28;20105;-52
2023/01/19 07:29:47;;;;;;;16.98;8.52;;;-1.20;99.90;;;;;;5011341;28;20037;-55
2023/01/19 07:32:33;;;;;;;15.02;8.90;;;-1.20;99.90;;;;;;5011327;28;20038;-55
2023/01/19 07:35:20;;;;;;;14.20;8.60;;;-1.10;99.90;;;;;;5010307;28;20030;-56
2023/01/19 07:38:06;;;;;;;12.98;8.90;;;-1.00;99.90;;;;;;5003579;28;20032;-55
2023/01/19 07:41:06;;;;;;;16.75;9.02;;;-1.00;99.90;;;;;;4996636;28;20041;-52
2023/01/19 07:43:52;;;;;;;12.40;9.07;;;-0.90;99.90;;;;;;5009865;28;20058;-54
2023/01/19 07:46:38;;;;;;;17.00;9.23;;;-0.90;99.90;;;;;;5010948;28;20030;-54
2023/01/19 07:49:24;;;;;;;16.02;9.05;;;-0.90;99.90;;;;;;5009007;28;20085;-52
2023/01/19 07:52:10;;;;;;;19.88;9.48;;;-0.90;99.90;;;;;;4977223;28;20096;-56
2023/01/19 07:54:57;;;;;;;16.25;8.43;;;-0.90;99.90;;;;;;4990562;28;20089;-55
2023/01/19 07:57:43;;;;;;;14.85;10.35;;;-0.80;99.90;;;;;;4994342;28;20540;-53
2023/01/19 08:00:29;;;;;;;17.73;9.18;;;-0.80;99.90;;;;;;5009746;28;20034;-51
2023/01/19 08:03:16;;;;;;;21.00;9.48;;;-0.70;99.90;;;;;;5004333;28;20034;-54
2023/01/19 08:06:04;;;;;;;14.15;9.13;;;-0.60;99.90;;;;;;5010176;28;20029;-50
2023/01/19 08:08:50;;;;;;;13.45;8.43;;;-0.60;99.90;;;;;;5011019;28;20030;-49
2023/01/19 08:11:36;;;;;;;20.50;11.43;;;-0.50;99.90;;;;;;5011695;28;20057;-51
2023/01/19 08:14:21;;;;;;;17.73;10.70;;;-0.40;99.90;;;;;;5010243;28;20037;-49
2023/01/19 08:17:12;;;;;;;16.88;8.68;;;-0.30;99.90;;;;;;5010711;28;20030;-52
2023/01/19 08:19:58;;;;;;;17.75;9.13;;;-0.30;99.90;;;;;;5006178;28;20041;-53
2023/01/19 08:22:46;;;;;;;13.05;8.80;;;-0.20;99.90;;;;;;5009704;28;20494;-58
2023/01/19 08:25:33;;;;;;;15.48;9.52;;;-0.20;99.90;;;;;;5011030;28;20025;-56
2023/01/19 08:28:19;;;;;;;21.83;11.50;;;-0.10;99.90;;;;;;5014512;28;20033;-55
2023/01/19 08:31:05;;;;;;;25.73;11.15;;;0.00;99.90;;;;;;5034018;28;20064;-57
2023/01/19 08:33:51;;;;;;;16.70;10.35;;;0.00;99.90;;;;;;5021019;28;20112;-58
2023/01/19 08:36:37;;;;;;;14.43;9.90;;;0.00;99.90;;;;;;5032485;28;20112;-59
2023/01/19 08:39:24;;;;;;;13.98;9.50;;;0.00;99.90;;;;;;5034375;28;20036;-54
2023/01/19 08:42:09;;;;;;;13.25;9.55;;;0.10;99.90;;;;;;5034685;28;20097;-58
2023/01/19 08:44:55;;;;;;;13.52;9.35;;;0.20;99.90;;;;;;5020909;28;20112;-56
2023/01/19 08:47:41;;;;;;;17.00;10.52;;;0.20;99.90;;;;;;5033969;28;20024;-56
2023/01/19 08:50:30;;;;;;;13.25;9.68;;;0.30;99.90;;;;;;5031367;28;20022;-58
2023/01/19 08:53:17;;;;;;;16.27;9.70;;;0.30;99.90;;;;;;5005799;28;20040;-60
2023/01/19 08:56:06;;;;;;;16.35;9.55;;;0.40;99.90;;;;;;5032173;28;20100;-58
2023/01/19 08:58:52;;;;;;;19.77;10.65;;;0.40;99.90;;;;;;5018958;28;20083;-54
2023/01/19 09:01:38;;;;;;;21.55;10.73;;;0.50;99.90;;;;;;5032082;28;20269;-55
2023/01/19 09:04:24;;;;;;;16.23;9.25;;;0.40;99.90;;;;;;5030959;28;20021;-57
2023/01/19 09:07:10;;;;;;;17.55;10.38;;;0.40;99.90;;;;;;5032738;28;20105;-58
2023/01/19 09:09:56;;;;;;;15.27;9.75;;;0.40;99.90;;;;;;5031396;28;20029;-57
2023/01/19 09:12:43;;;;;;;17.38;10.05;;;0.60;99.90;;;;;;5033385;28;20034;-48
2023/01/19 09:15:32;;;;;;;18.70;9.65;;;0.60;99.90;;;;;;5032397;28;20075;-56
2023/01/19 09:18:20;;;;;;;13.85;9.10;;;0.90;99.90;;;;;;5019479;28;20026;-61
2023/01/19 09:21:07;;;;;;;13.75;8.82;;;1.00;99.90;;;;;;5034517;28;20104;-57
2023/01/19 09:23:53;;;;;;;15.20;8.50;;;1.10;99.90;;;;;;5033455;28;20067;-59
2023/01/19 09:26:39;;;;;;;12.00;8.85;;;1.10;99.90;;;;;;5018697;28;20083;-58
2023/01/19 09:29:25;;;;;;;14.38;8.35;;;1.00;99.90;;;;;;5019541;28;20502;-57
2023/01/19 09:32:11;;;;;;;13.65;8.70;;;1.10;99.90;;;;;;5031960;28;20036;-60
2023/01/19 09:34:57;;;;;;;13.77;8.50;;;1.00;99.90;;;;;;5032420;28;20285;-55
2023/01/19 09:37:46;;;;;;;13.23;9.48;;;1.00;99.90;;;;;;5030531;28;20033;-54
2023/01/19 09:40:35;;;;;;;16.65;9.82;;;1.00;99.90;;;;;;5032922;28;20331;-53
2023/01/19 09:43:46;;;;;;;14.15;9.32;;;0.90;99.90;;;;;;5032240;28;20128;-55
2023/01/19 09:46:41;;;;;;;13.52;8.88;;;1.00;99.90;;;;;;5031545;28;20300;-55
2023/01/19 09:49:37;;;;;;;24.95;10.18;;;0.90;99.90;;;;;;5031585;28;20112;-52
2023/01/19 09:52:24;;;;;;;17.15;9.20;;;1.00;99.90;;;;;;5032009;28;20406;-57
2023/01/19 09:55:21;;;;;;;12.38;9.00;;;1.20;99.90;;;;;;5031662;28;20049;-54
2023/01/19 09:58:18;;;;;;;15.70;9.07;;;1.30;99.90;;;;;;5034238;28;20448;-60
2023/01/19 10:01:35;;;;;;;12.98;8.75;;;1.30;99.90;;;;;;5032048;28;20029;-54
2023/01/19 10:04:27;;;;;;;13.95;9.13;;;1.30;99.90;;;;;;5032225;28;20026;-57
2023/01/19 10:07:13;;;;;;;15.65;9.82;;;1.50;99.90;;;;;;5031573;28;20029;-56
2023/01/19 10:10:10;;;;;;;14.25;9.60;;;1.50;99.90;;;;;;5032635;28;20033;-55
2023/01/19 10:13:13;;;;;;;14.02;10.15;;;1.70;99.90;;;;;;5033022;28;20505;-56
2023/01/19 10:16:21;;;;;;;10.57;8.55;;;1.70;99.90;;;;;;5028227;28;20117;-53
2023/01/19 10:19:32;;;;;;;16.23;9.13;;;1.70;99.90;;;;;;4997511;28;20037;-53
2023/01/19 10:22:25;;;;;;;16.33;8.82;;;1.80;99.90;;;;;;4973375;28;20414;-55
2023/01/19 10:25:17;;;;;;;13.50;8.82;;;1.70;99.90;;;;;;4992647;28;20525;-60
2023/01/19 10:28:03;;;;;;;13.88;9.57;;;1.70;99.90;;;;;;4992599;28;20031;-55
2023/01/19 10:30:51;;;;;;;12.30;8.55;;;1.80;99.90;;;;;;4977522;28;20459;-58
2023/01/19 10:33:38;;;;;;;13.13;8.68;;;1.80;99.90;;;;;;4992865;28;20101;-55
2023/01/19 10:36:36;;;;;;;12.57;8.27;;;1.80;99.90;;;;;;4991742;28;20034;-59
2023/01/19 10:39:22;;;;;;;16.55;9.38;;;1.80;99.90;;;;;;4992738;28;20026;-60
2023/01/19 10:42:14;;;;;;;12.35;8.20;;;1.80;99.90;;;;;;5010524;28;20030;-57
2023/01/19 10:44:59;;;;;;;15.90;9.98;;;1.80;99.90;;;;;;5011210;28;20069;-54
2023/01/19 10:47:47;;;;;;;17.27;9.23;;;1.70;99.90;;;;;;5012254;28;20022;-51
2023/01/19 10:50:38;;;;;;;13.25;9.18;;;1.80;99.90;;;;;;5010398;28;20458;-56
2023/01/19 10:53:24;;;;;;;15.70;9.68;;;1.80;99.90;;;;;;5011321;28;20034;-55
2023/01/19 10:56:19;;;;;;;16.90;9.02;;;1.90;99.90;;;;;;5010049;28;20395;-60
2023/01/19 10:59:26;;;;;;;11.90;8.90;;;1.90;99.90;;;;;;5009108;28;20072;-56
2023/01/19 11:02:18;;;;;;;11.65;8.45;;;1.90;99.90;;;;;;5011281;28;20076;-55
2023/01/19 11:05:25;;;;;;;12.55;9.25;;;2.00;99.90;;;;;;5010893;28;20022;-55
2023/01/19 11:08:26;;;;;;;11.23;8.57;;;2.10;99.90;;;;;;5011037;28;20037;-56
2023/01/19 11:11:12;;;;;;;12.38;9.00;;;2.10;99.90;;;;;;5010505;28;20486;-55
2023/01/19 11:14:13;;;;;;;12.60;8.68;;;2.30;99.90;;;;;;5011701;28;20054;-55
2023/01/19 11:16:59;;;;;;;12.85;8.63;;;2.30;99.90;;;;;;5000768;28;20150;-52
2023/01/19 11:19:59;;;;;;;15.90;8.45;;;2.30;99.90;;;;;;5011211;28;20037;-55
2023/01/19 11:22:45;;;;;;;13.52;8.73;;;2.30;99.90;;;;;;5010314;28;20041;-56
2023/01/19 11:25:34;;;;;;;12.18;8.10;;;2.20;99.90;;;;;;5011323;28;20025;-53
2023/01/19 11:28:28;;;;;;;14.02;8.48;;;2.20;99.90;;;;;;5010883;28;20108;-56
2023/01/19 11:31:14;;;;;;;13.82;8.85;;;2.30;99.90;;;;;;5011705;28;20116;-54
2023/01/19 11:34:03;;;;;;;12.57;9.55;;;2.40;99.90;;;;;;5009899;28;20038;-58
2023/01/19 11:37:15;;;;;;;11.15;7.93;;;2.40;99.90;;;;;;5009854;28;20061;-58
2023/01/19 11:40:04;;;;;;;13.65;8.02;;;2.50;99.90;;;;;;4996800;28;20034;-59
2023/01/19 11:42:50;;;;;;;15.43;9.93;;;2.50;99.90;;;;;;5010554;28;20061;-58
2023/01/19 11:45:37;;;;;;;10.52;8.00;;;2.60;99.90;;;;;;5009007;28;20090;-55
2023/01/19 11:48:48;;;;;;;12.70;8.65;;;2.70;99.90;;;;;;4995910;28;20116;-57
2023/01/19 11:52:03;;;;;;;11.75;8.40;;;2.80;99.90;;;;;;4996668;28;20065;-56
2023/01/19 11:54:57;;;;;;;14.32;9.05;;;2.90;99.90;;;;;;5010210;28;20054;-56
2023/01/19 11:57:49;;;;;;;15.82;8.70;;;3.00;99.90;;;;;;5009615;28;20022;-54
2023/01/19 12:00:51;;;;;;;12.45;7.75;;;3.10;99.90;;;;;;5011472;28;20060;-56
2023/01/19 12:03:45;;;;;;;10.85;8.02;;;3.10;99.90;;;;;;5013314;28;20025;-59
2023/01/19 12:06:43;;;;;;;11.52;8.05;;;3.10;99.90;;;;;;5013024;28;20032;-55
2023/01/19 12:09:34;;;;;;;13.48;8.15;;;3.00;99.90;;;;;;5014109;28;20029;-56
2023/01/19 12:12:30;;;;;;;12.38;8.43;;;3.10;99.90;;;;;;5014365;28;20084;-54
2023/01/19 12:15:37;;;;;;;11.93;8.43;;;3.30;99.90;;;;;;5014188;28;20029;-49
2023/01/19 12:18:31;;;;;;;15.52;7.97;;;3.20;99.90;;;;;;5012513;28;20117;-52
2023/01/19 12:21:18;;;;;;;12.98;8.85;;;3.00;99.90;;;;;;5014809;28;20018;-55
2023/01/19 12:24:12;;;;;;;15.25;8.48;;;2.90;99.90;;;;;;5014992;28;20054;-51
2023/01/19 12:27:00;;;;;;;12.20;8.35;;;3.00;99.90;;;;;;5014196;28;20512;-59
2023/01/19 12:29:47;;;;;;;14.23;8.07;;;3.10;99.90;;;;;;5013966;28;20025;-57
2023/01/19 12:32:35;;;;;;;10.52;8.60;;;3.10;99.90;;;;;;5005563;28;20044;-61
2023/01/19 12:35:52;;;;;;;13.30;8.80;;;3.20;99.90;;;;;;5034821;28;20087;-60
2023/01/19 12:38:43;;;;;;;11.27;9.13;;;3.20;99.90;;;;;;5032610;28;20018;-57
2023/01/19 12:41:39;;;;;;;11.45;8.45;;;3.10;99.90;;;;;;5033558;28;20490;-57
2023/01/19 12:44:29;;;;;;;11.27;8.38;;;3.10;99.90;;;;;;5019451;28;20021;-52
2023/01/19 12:47:15;;;;;;;12.05;8.60;;;3.10;99.90;;;;;;5019368;28;20524;-55
2023/01/19 12:50:06;;;;;;;12.57;8.57;;;3.10;99.90;;;;;;5033531;28;20029;-56
2023/01/19 12:52:58;;;;;;;12.02;9.48;;;3.10;99.90;;;;;;5034321;28;20025;-60
2023/01/19 12:55:46;;;;;;;12.25;9.25;;;3.10;99.90;;;;;;5033401;28;20026;-61
2023/01/19 12:58:33;;;;;;;11.15;8.60;;;3.10;99.90;;;;;;5033104;28;20056;-59
2023/01/19 13:01:20;;;;;;;14.88;9.20;;;3.10;99.90;;;;;;5033480;28;20486;-55
2023/01/19 13:04:30;;;;;;;17.67;8.82;;;3.20;99.90;;;;;;5032678;28;20025;-55
2023/01/19 13:07:18;;;;;;;12.07;8.00;;;3.00;99.90;;;;;;5032886;28;20515;-53
2023/01/19 13:10:41;;;;;;;13.15;8.65;;;3.10;99.90;;;;;;5033366;28;20034;-57
2023/01/19 13:13:41;;;;;;;10.48;7.40;;;3.10;99.90;;;;;;5033362;28;20036;-58
2023/01/19 13:16:26;;;;;;;12.15;8.15;;;3.10;99.90;;;;;;5033233;28;20036;-54
2023/01/19 13:19:20;;;;;;;10.63;7.57;;;3.10;99.90;;;;;;5031545;28;20022;-51
2023/01/19 13:22:48;;;;;;;10.25;7.57;;;3.10;99.90;;;;;;5033009;28;20030;-53
2023/01/19 13:25:35;;;;;;;8.98;6.93;;;3.10;99.90;;;;;;5033123;28;20045;-52
2023/01/19 13:28:34;;;;;;;12.75;7.70;;;3.10;99.90;;;;;;5031437;28;20033;-51
2023/01/19 13:31:22;;;;;;;9.20;6.90;;;3.10;99.90;;;;;;5033528;28;20091;-55
2023/01/19 13:34:17;;;;;;;10.07;6.88;;;3.10;99.90;;;;;;5032919;28;20021;-53
2023/01/19 13:37:14;;;;;;;9.38;6.68;;;3.10;99.90;;;;;;5032551;28;20057;-50
2023/01/19 13:40:01;;;;;;;8.82;6.53;;;3.00;99.90;;;;;;5032993;28;20053;-54
2023/01/19 13:42:48;;;;;;;11.45;6.25;;;3.00;99.90;;;;;;5033356;28;20465;-56
2023/01/19 13:45:36;;;;;;;9.57;6.40;;;3.00;99.90;;;;;;5032536;28;20469;-58
2023/01/19 13:48:23;;;;;;;9.48;6.88;;;3.00;99.90;;;;;;5032328;28;20076;-57
2023/01/19 13:51:17;;;;;;;9.00;6.68;;;3.00;99.90;;;;;;5032400;28;20036;-58
2023/01/19 13:54:05;;;;;;;9.88;6.63;;;2.90;99.90;;;;;;5018021;28;20064;-51
2023/01/19 13:56:50;;;;;;;8.95;6.82;;;2.90;99.90;;;;;;5010490;28;20022;-56
2023/01/19 13:59:36;;;;;;;10.68;6.70;;;2.90;99.90;;;;;;5012754;28;20508;-55
2023/01/19 14:02:22;;;;;;;8.88;6.93;;;2.90;99.90;;;;;;5012766;28;20033;-56
2023/01/19 14:05:22;;;;;;;10.40;6.85;;;3.00;99.90;;;;;;5012278;28;20022;-55
2023/01/19 14:08:16;;;;;;;9.75;7.38;;;3.00;99.90;;;;;;5012351;28;20097;-55
2023/01/19 14:11:03;;;;;;;11.77;7.10;;;3.00;99.90;;;;;;5012471;28;20096;-55
2023/01/19 14:13:49;;;;;;;12.98;6.95;;;3.00;99.90;;;;;;5012263;28;20030;-53
2023/01/19 14:16:34;;;;;;;10.93;6.57;;;3.10;99.90;;;;;;5011698;28;20029;-57
2023/01/19 14:19:21;;;;;;;11.40;7.25;;;3.10;99.90;;;;;;5011114;28;20038;-55
2023/01/19 14:22:07;;;;;;;11.07;7.28;;;3.10;99.90;;;;;;5011469;28;20351;-54
2023/01/19 14:24:53;;;;;;;9.60;6.65;;;3.00;99.90;;;;;;5011311;28;20526;-58
2023/01/19 14:27:38;;;;;;;14.27;7.13;;;3.00;99.90;;;;;;5011791;28;20403;-56
2023/01/19 14:30:25;;;;;;;10.25;6.82;;;3.00;99.90;;;;;;5010936;28;20339;-54
2023/01/19 14:33:42;;;;;;;11.77;8.02;;;3.00;99.90;;;;;;5010254;28;20025;-55
2023/01/19 14:36:38;;;;;;;9.93;7.30;;;3.00;99.90;;;;;;5010413;28;20215;-56
2023/01/19 14:39:26;;;;;;;14.90;7.10;;;3.00;99.90;;;;;;5011020;28;20618;-55
2023/01/19 14:42:29;;;;;;;10.90;7.05;;;3.00;99.90;;;;;;5011367;28;20494;-52
2023/01/19 14:45:19;;;;;;;11.57;6.80;;;3.00;99.90;;;;;;5010902;28;20046;-56